sensor_id;sensor_type;location;lat;lon;timestamp;temperature;humidity
2407;DHT22;37709;53.480;9.688;2023-08-21T00:01:58;14.00;99.90
2407;DHT22;37709;53.480;9.688;2023-08-21T00:04:26;14.00;99.90
2407;DHT22;37709;53.480;9.688;2023-08-21T00:06:53;14.00;99.90
2407;DHT22;37709;53.480;9.688;2023-08-21T00:09:21;13.90;99.90
2407;DHT22;37709;53.480;9.688;2023-08-21T00:11:49;13.90;99.90
2407;DHT22;37709;53.480;9.688;2023-08-21T00:14:17;13.80;99.90
2407;DHT22;37709;53.480;9.688;2023-08-21T00:16:44;13.70;99.90
2407;DHT22;37709;53.480;9.688;2023-08-21T00:19:16;13.70;99.90
2407;DHT22;37709;53.480;9.688;2023-08-21T00:21:43;13.70;99.90
2407;DHT22;37709;53.480;9.688;2023-08-21T00:24:11;13.70;99.90
2407;DHT22;37709;53.480;9.688;2023-08-21T00:26:38;13.70;99.90
2407;DHT22;37709;53.480;9.688;2023-08-21T00:29:06;13.70;99.90
2407;DHT22;37709;53.480;9.688;2023-08-21T00:31:33;13.70;99.90
2407;DHT22;37709;53.480;9.688;2023-08-21T00:34:01;13.60;99.90
2407;DHT22;37709;53.480;9.688;2023-08-21T00:36:28;13.40;99.90
2407;DHT22;37709;53.480;9.688;2023-08-21T00:38:55;13.40;99.90
2407;DHT22;37709;53.480;9.688;2023-08-21T00:41:23;13.40;99.90
2407;DHT22;37709;53.480;9.688;2023-08-21T00:43:51;13.30;99.90
2407;DHT22;37709;53.480;9.688;2023-08-21T00:46:18;13.20;99.90
2407;DHT22;37709;53.480;9.688;2023-08-21T00:48:45;13.20;99.90
2407;DHT22;37709;53.480;9.688;2023-08-21T00:51:15;13.30;99.90
2407;DHT22;37709;53.480;9.688;2023-08-21T00:53:44;13.30;99.90
2407;DHT22;37709;53.480;9.688;2023-08-21T00:56:13;13.20;99.90
2407;DHT22;37709;53.480;9.688;2023-08-21T00:58:40;13.20;99.90
2407;DHT22;37709;53.480;9.688;2023-08-21T01:01:09;13.20;99.90
2407;DHT22;37709;53.480;9.688;2023-08-21T01:03:37;13.10;99.90
2407;DHT22;37709;53.480;9.688;2023-08-21T01:06:05;13.10;99.90
2407;DHT22;37709;53.480;9.688;2023-08-21T01:08:47;13.00;99.90
2407;DHT22;37709;53.480;9.688;2023-08-21T01:11:26;13.10;99.90
2407;DHT22;37709;53.480;9.688;2023-08-21T01:14:21;13.20;99.90
2407;DHT22;37709;53.480;9.688;2023-08-21T01:16:53;13.20;99.90
2407;DHT22;37709;53.480;9.688;2023-08-21T01:19:41;13.10;99.90
2407;DHT22;37709;53.480;9.688;2023-08-21T01:22:09;13.10;99.90
2407;DHT22;37709;53.480;9.688;2023-08-21T01:24:36;13.30;99.90
2407;DHT22;37709;53.480;9.688;2023-08-21T01:27:04;13.20;99.90
2407;DHT22;37709;53.480;9.688;2023-08-21T01:29:33;13.20;99.90
2407;DHT22;37709;53.480;9.688;2023-08-21T01:32:07;13.20;99.90
2407;DHT22;37709;53.480;9.688;2023-08-21T01:34:38;13.20;99.90
2407;DHT22;37709;53.480;9.688;2023-08-21T01:37:08;13.10;99.90
2407;DHT22;37709;53.480;9.688;2023-08-21T01:39:36;13.10;99.90
2407;DHT22;37709;53.480;9.688;2023-08-21T01:42:05;13.10;99.90
2407;DHT22;37709;53.480;9.688;2023-08-21T01:44:32;13.10;99.90
2407;DHT22;37709;53.480;9.688;2023-08-21T01:47:03;13.10;99.90
2407;DHT22;37709;53.480;9.688;2023-08-21T01:49:31;13.00;99.90
2407;DHT22;37709;53.480;9.688;2023-08-21T01:51:58;13.00;99.90
2407;DHT22;37709;53.480;9.688;2023-08-21T01:54:26;12.80;99.90
2407;DHT22;37709;53.480;9.688;2023-08-21T01:56:53;12.80;99.90
2407;DHT22;37709;53.480;9.688;2023-08-21T01:59:22;12.80;99.90
2407;DHT22;37709;53.480;9.688;2023-08-21T02:01:50;12.70;99.90
2407;DHT22;37709;53.480;9.688;2023-08-21T02:04:18;12.60;99.90
2407;DHT22;37709;53.480;9.688;2023-08-21T02:06:46;12.60;99.90
2407;DHT22;37709;53.480;9.688;2023-08-21T02:09:14;12.50;99.90
2407;DHT22;37709;53.480;9.688;2023-08-21T02:11:41;12.60;99.90
2407;DHT22;37709;53.480;9.688;2023-08-21T02:14:09;12.50;99.90
2407;DHT22;37709;53.480;9.688;2023-08-21T02:16:37;12.40;99.90
2407;DHT22;37709;53.480;9.688;2023-08-21T02:19:06;12.30;99.90
2407;DHT22;37709;53.480;9.688;2023-08-21T02:21:34;12.30;99.90
2407;DHT22;37709;53.480;9.688;2023-08-21T02:24:05;12.20;99.90
2407;DHT22;37709;53.480;9.688;2023-08-21T02:26:33;12.20;99.90
2407;DHT22;37709;53.480;9.688;2023-08-21T02:29:00;12.20;99.90
2407;DHT22;37709;53.480;9.688;2023-08-21T02:31:28;12.20;99.90
2407;DHT22;37709;53.480;9.688;2023-08-21T02:33:56;12.20;99.90
2407;DHT22;37709;53.480;9.688;2023-08-21T02:36:23;12.20;99.90
2407;DHT22;37709;53.480;9.688;2023-08-21T02:38:51;12.20;99.90
2407;DHT22;37709;53.480;9.688;2023-08-21T02:41:18;12.10;99.90
2407;DHT22;37709;53.480;9.688;2023-08-21T02:43:45;12.20;99.90
2407;DHT22;37709;53.480;9.688;2023-08-21T02:46:14;12.20;99.90
2407;DHT22;37709;53.480;9.688;2023-08-21T02:48:43;12.20;99.90
2407;DHT22;37709;53.480;9.688;2023-08-21T02:51:10;12.20;99.90
2407;DHT22;37709;53.480;9.688;2023-08-21T02:53:38;12.10;99.90
2407;DHT22;37709;53.480;9.688;2023-08-21T02:56:05;12.00;99.90
2407;DHT22;37709;53.480;9.688;2023-08-21T02:58:32;12.00;99.90
2407;DHT22;37709;53.480;9.688;2023-08-21T03:01:00;12.00;99.90
2407;DHT22;37709;53.480;9.688;2023-08-21T03:03:27;12.00;99.90
2407;DHT22;37709;53.480;9.688;2023-08-21T03:05:54;12.20;99.90
2407;DHT22;37709;53.480;9.688;2023-08-21T03:08:23;12.30;99.90
2407;DHT22;37709;53.480;9.688;2023-08-21T03:10:50;12.10;99.90
2407;DHT22;37709;53.480;9.688;2023-08-21T03:13:17;12.00;99.90
2407;DHT22;37709;53.480;9.688;2023-08-21T03:15:47;12.00;99.90
2407;DHT22;37709;53.480;9.688;2023-08-21T03:18:15;12.10;99.90
2407;DHT22;37709;53.480;9.688;2023-08-21T03:20:46;12.10;99.90
2407;DHT22;37709;53.480;9.688;2023-08-21T03:23:13;12.00;99.90
2407;DHT22;37709;53.480;9.688;2023-08-21T03:25:41;11.90;99.90
2407;DHT22;37709;53.480;9.688;2023-08-21T03:28:09;11.90;99.90
2407;DHT22;37709;53.480;9.688;2023-08-21T03:30:39;11.90;99.90
2407;DHT22;37709;53.480;9.688;2023-08-21T03:33:06;12.00;99.90
2407;DHT22;37709;53.480;9.688;2023-08-21T03:35:36;12.00;99.90
2407;DHT22;37709;53.480;9.688;2023-08-21T03:38:03;11.90;99.90
2407;DHT22;37709;53.480;9.688;2023-08-21T03:40:39;12.00;99.90
2407;DHT22;37709;53.480;9.688;2023-08-21T03:43:07;12.00;99.90
2407;DHT22;37709;53.480;9.688;2023-08-21T03:45:34;11.90;99.90
2407;DHT22;37709;53.480;9.688;2023-08-21T03:48:04;12.00;99.90
2407;DHT22;37709;53.480;9.688;2023-08-21T03:50:32;12.00;99.90
2407;DHT22;37709;53.480;9.688;2023-08-21T03:52:59;12.00;99.90
2407;DHT22;37709;53.480;9.688;2023-08-21T03:55:26;12.00;99.90
2407;DHT22;37709;53.480;9.688;2023-08-21T03:57:54;11.90;99.90
2407;DHT22;37709;53.480;9.688;2023-08-21T04:00:22;12.10;99.90
2407;DHT22;37709;53.480;9.688;2023-08-21T04:02:50;12.20;99.90
2407;DHT22;37709;53.480;9.688;2023-08-21T04:05:17;12.30;99.90
2407;DHT22;37709;53.480;9.688;2023-08-21T04:07:46;12.40;99.90
2407;DHT22;37709;53.480;9.688;2023-08-21T04:10:15;12.50;99.90
2407;DHT22;37709;53.480;9.688;2023-08-21T04:12:43;12.60;99.90
2407;DHT22;37709;53.480;9.688;2023-08-21T04:15:11;12.60;99.90
2407;DHT22;37709;53.480;9.688;2023-08-21T04:17:38;12.60;99.90
2407;DHT22;37709;53.480;9.688;2023-08-21T04:20:07;12.70;99.90
2407;DHT22;37709;53.480;9.688;2023-08-21T04:22:34;12.70;99.90
2407;DHT22;37709;53.480;9.688;2023-08-21T04:25:02;12.90;99.90
2407;DHT22;37709;53.480;9.688;2023-08-21T04:27:30;13.20;99.90
2407;DHT22;37709;53.480;9.688;2023-08-21T04:29:57;13.40;99.90
2407;DHT22;37709;53.480;9.688;2023-08-21T04:32:25;13.50;99.90
2407;DHT22;37709;53.480;9.688;2023-08-21T04:34:53;13.50;99.90
2407;DHT22;37709;53.480;9.688;2023-08-21T04:37:21;13.40;99.90
2407;DHT22;37709;53.480;9.688;2023-08-21T04:39:54;13.50;99.90
2407;DHT22;37709;53.480;9.688;2023-08-21T04:42:22;13.50;99.90
2407;DHT22;37709;53.480;9.688;2023-08-21T04:44:49;13.50;99.90
2407;DHT22;37709;53.480;9.688;2023-08-21T04:47:25;13.50;99.90
2407;DHT22;37709;53.480;9.688;2023-08-21T04:49:57;13.50;99.90
2407;DHT22;37709;53.480;9.688;2023-08-21T04:52:25;13.50;99.90
2407;DHT22;37709;53.480;9.688;2023-08-21T04:54:54;13.40;99.90
2407;DHT22;37709;53.480;9.688;2023-08-21T04:57:22;13.40;99.90
2407;DHT22;37709;53.480;9.688;2023-08-21T04:59:50;13.40;99.90
2407;DHT22;37709;53.480;9.688;2023-08-21T05:02:20;13.40;99.90
2407;DHT22;37709;53.480;9.688;2023-08-21T05:04:49;13.40;99.90
2407;DHT22;37709;53.480;9.688;2023-08-21T05:07:16;13.40;99.90
2407;DHT22;37709;53.480;9.688;2023-08-21T05:12:14;13.60;99.90
2407;DHT22;37709;53.480;9.688;2023-08-21T05:14:41;13.70;99.90
2407;DHT22;37709;53.480;9.688;2023-08-21T05:17:09;13.80;99.90
2407;DHT22;37709;53.480;9.688;2023-08-21T05:19:36;13.90;99.90
2407;DHT22;37709;53.480;9.688;2023-08-21T05:22:03;14.00;99.90
2407;DHT22;37709;53.480;9.688;2023-08-21T05:24:32;14.10;99.90
2407;DHT22;37709;53.480;9.688;2023-08-21T05:27:04;14.20;99.90
2407;DHT22;37709;53.480;9.688;2023-08-21T05:29:32;14.30;99.90
2407;DHT22;37709;53.480;9.688;2023-08-21T05:32:00;14.30;99.90
2407;DHT22;37709;53.480;9.688;2023-08-21T05:34:28;14.40;99.90
2407;DHT22;37709;53.480;9.688;2023-08-21T05:36:55;14.50;99.90
2407;DHT22;37709;53.480;9.688;2023-08-21T05:39:23;14.50;99.90
2407;DHT22;37709;53.480;9.688;2023-08-21T05:41:50;14.60;99.90
2407;DHT22;37709;53.480;9.688;2023-08-21T05:44:20;14.70;99.90
2407;DHT22;37709;53.480;9.688;2023-08-21T05:46:47;14.80;99.90
2407;DHT22;37709;53.480;9.688;2023-08-21T05:49:15;14.80;99.90
2407;DHT22;37709;53.480;9.688;2023-08-21T05:51:43;14.90;99.90
2407;DHT22;37709;53.480;9.688;2023-08-21T05:54:10;15.00;99.90
2407;DHT22;37709;53.480;9.688;2023-08-21T05:56:39;15.30;99.90
2407;DHT22;37709;53.480;9.688;2023-08-21T05:59:10;15.40;99.90
2407;DHT22;37709;53.480;9.688;2023-08-21T06:01:37;15.50;99.90
2407;DHT22;37709;53.480;9.688;2023-08-21T06:04:04;15.60;99.90
2407;DHT22;37709;53.480;9.688;2023-08-21T06:06:38;15.70;99.90
2407;DHT22;37709;53.480;9.688;2023-08-21T06:09:06;15.80;99.90
2407;DHT22;37709;53.480;9.688;2023-08-21T06:11:35;16.00;99.90
2407;DHT22;37709;53.480;9.688;2023-08-21T06:14:03;16.10;99.90
2407;DHT22;37709;53.480;9.688;2023-08-21T06:16:31;16.20;99.90
2407;DHT22;37709;53.480;9.688;2023-08-21T06:18:58;16.30;99.90
2407;DHT22;37709;53.480;9.688;2023-08-21T06:21:25;16.40;99.90
2407;DHT22;37709;53.480;9.688;2023-08-21T06:23:53;16.60;99.90
2407;DHT22;37709;53.480;9.688;2023-08-21T06:26:20;16.80;99.90
2407;DHT22;37709;53.480;9.688;2023-08-21T06:28:47;16.90;99.90
2407;DHT22;37709;53.480;9.688;2023-08-21T06:31:15;17.10;99.90
2407;DHT22;37709;53.480;9.688;2023-08-21T06:33:43;17.20;99.90
2407;DHT22;37709;53.480;9.688;2023-08-21T06:36:11;17.40;99.90
2407;DHT22;37709;53.480;9.688;2023-08-21T06:38:38;17.60;99.90
2407;DHT22;37709;53.480;9.688;2023-08-21T06:41:06;18.00;99.90
2407;DHT22;37709;53.480;9.688;2023-08-21T06:43:38;18.70;99.90
2407;DHT22;37709;53.480;9.688;2023-08-21T06:46:15;19.60;99.90
2407;DHT22;37709;53.480;9.688;2023-08-21T06:48:43;21.00;99.90
2407;DHT22;37709;53.480;9.688;2023-08-21T06:51:11;22.30;99.90
2407;DHT22;37709;53.480;9.688;2023-08-21T06:53:43;23.60;99.90
2407;DHT22;37709;53.480;9.688;2023-08-21T06:56:11;24.90;99.90
2407;DHT22;37709;53.480;9.688;2023-08-21T06:58:38;25.80;99.90
2407;DHT22;37709;53.480;9.688;2023-08-21T07:01:05;26.50;99.90
2407;DHT22;37709;53.480;9.688;2023-08-21T07:03:33;27.20;99.90
2407;DHT22;37709;53.480;9.688;2023-08-21T07:06:00;27.70;99.90
2407;DHT22;37709;53.480;9.688;2023-08-21T07:08:28;28.00;99.90
2407;DHT22;37709;53.480;9.688;2023-08-21T07:10:56;28.40;99.90
2407;DHT22;37709;53.480;9.688;2023-08-21T07:13:24;29.00;99.90
2407;DHT22;37709;53.480;9.688;2023-08-21T07:15:52;29.50;99.90
2407;DHT22;37709;53.480;9.688;2023-08-21T07:18:22;29.80;99.90
2407;DHT22;37709;53.480;9.688;2023-08-21T07:20:52;29.70;99.90
2407;DHT22;37709;53.480;9.688;2023-08-21T07:23:20;30.30;99.90
2407;DHT22;37709;53.480;9.688;2023-08-21T07:25:48;30.70;99.90
2407;DHT22;37709;53.480;9.688;2023-08-21T07:28:15;31.20;99.90
2407;DHT22;37709;53.480;9.688;2023-08-21T07:30:43;31.50;99.90
2407;DHT22;37709;53.480;9.688;2023-08-21T07:33:10;31.90;99.90
2407;DHT22;37709;53.480;9.688;2023-08-21T07:35:39;32.00;99.90
2407;DHT22;37709;53.480;9.688;2023-08-21T07:38:06;32.30;99.90
2407;DHT22;37709;53.480;9.688;2023-08-21T07:40:34;32.30;99.90
2407;DHT22;37709;53.480;9.688;2023-08-21T07:43:02;29.80;99.90
2407;DHT22;37709;53.480;9.688;2023-08-21T07:45:30;28.60;99.90
2407;DHT22;37709;53.480;9.688;2023-08-21T07:47:57;27.80;99.90
2407;DHT22;37709;53.480;9.688;2023-08-21T07:50:40;27.50;99.90
2407;DHT22;37709;53.480;9.688;2023-08-21T07:53:07;27.40;99.90
2407;DHT22;37709;53.480;9.688;2023-08-21T07:55:35;26.60;99.90
2407;DHT22;37709;53.480;9.688;2023-08-21T07:58:02;26.40;99.90
2407;DHT22;37709;53.480;9.688;2023-08-21T08:00:31;26.80;99.90
2407;DHT22;37709;53.480;9.688;2023-08-21T08:02:59;27.10;99.90
2407;DHT22;37709;53.480;9.688;2023-08-21T08:05:26;27.10;99.90
2407;DHT22;37709;53.480;9.688;2023-08-21T08:07:53;27.00;99.90
2407;DHT22;37709;53.480;9.688;2023-08-21T08:10:20;27.00;99.90
2407;DHT22;37709;53.480;9.688;2023-08-21T08:12:48;26.80;99.90
2407;DHT22;37709;53.480;9.688;2023-08-21T08:15:15;26.30;99.90
2407;DHT22;37709;53.480;9.688;2023-08-21T08:17:42;25.20;99.90
2407;DHT22;37709;53.480;9.688;2023-08-21T08:20:10;24.80;99.90
2407;DHT22;37709;53.480;9.688;2023-08-21T08:22:38;24.70;99.90
2407;DHT22;37709;53.480;9.688;2023-08-21T08:25:07;25.00;99.90
2407;DHT22;37709;53.480;9.688;2023-08-21T08:27:34;25.30;99.90
2407;DHT22;37709;53.480;9.688;2023-08-21T08:30:02;25.00;99.90
2407;DHT22;37709;53.480;9.688;2023-08-21T08:32:30;24.80;99.90
2407;DHT22;37709;53.480;9.688;2023-08-21T08:34:58;24.80;99.90
2407;DHT22;37709;53.480;9.688;2023-08-21T08:37:25;24.90;99.90
2407;DHT22;37709;53.480;9.688;2023-08-21T08:39:52;24.80;99.90
2407;DHT22;37709;53.480;9.688;2023-08-21T08:42:19;24.90;99.90
2407;DHT22;37709;53.480;9.688;2023-08-21T08:44:47;24.90;99.90
2407;DHT22;37709;53.480;9.688;2023-08-21T08:47:15;25.00;99.90
2407;DHT22;37709;53.480;9.688;2023-08-21T08:49:47;25.00;99.90
2407;DHT22;37709;53.480;9.688;2023-08-21T08:52:16;25.50;99.90
2407;DHT22;37709;53.480;9.688;2023-08-21T08:54:45;26.10;99.90
2407;DHT22;37709;53.480;9.688;2023-08-21T08:57:13;26.20;99.90
2407;DHT22;37709;53.480;9.688;2023-08-21T08:59:40;26.20;99.90
2407;DHT22;37709;53.480;9.688;2023-08-21T09:02:08;26.40;99.90
2407;DHT22;37709;53.480;9.688;2023-08-21T09:04:36;26.70;99.90
2407;DHT22;37709;53.480;9.688;2023-08-21T09:07:10;27.10;99.90
2407;DHT22;37709;53.480;9.688;2023-08-21T09:09:39;27.50;99.90
2407;DHT22;37709;53.480;9.688;2023-08-21T09:12:12;28.00;99.90
2407;DHT22;37709;53.480;9.688;2023-08-21T09:14:40;29.00;99.90
2407;DHT22;37709;53.480;9.688;2023-08-21T09:17:08;30.50;98.90
2407;DHT22;37709;53.480;9.688;2023-08-21T09:19:35;32.30;96.30
2407;DHT22;37709;53.480;9.688;2023-08-21T09:39:38;34.00;94.00
2407;DHT22;37709;53.480;9.688;2023-08-21T09:42:09;41.60;59.60
2407;DHT22;37709;53.480;9.688;2023-08-21T09:44:40;42.20;57.90
2407;DHT22;37709;53.480;9.688;2023-08-21T09:47:11;40.60;57.10
2407;DHT22;37709;53.480;9.688;2023-08-21T09:49:39;41.50;55.60
2407;DHT22;37709;53.480;9.688;2023-08-21T09:52:08;42.10;54.60
2407;DHT22;37709;53.480;9.688;2023-08-21T09:54:59;43.00;52.60
2407;DHT22;37709;53.480;9.688;2023-08-21T09:57:28;43.90;51.50
2407;DHT22;37709;53.480;9.688;2023-08-21T09:59:56;45.00;51.10
2407;DHT22;37709;53.480;9.688;2023-08-21T10:02:26;45.70;48.90
2407;DHT22;37709;53.480;9.688;2023-08-21T10:04:54;45.70;48.70
2407;DHT22;37709;53.480;9.688;2023-08-21T10:07:25;46.80;46.40
2407;DHT22;37709;53.480;9.688;2023-08-21T10:09:54;47.10;45.30
2407;DHT22;37709;53.480;9.688;2023-08-21T10:12:22;47.00;43.00
2407;DHT22;37709;53.480;9.688;2023-08-21T10:14:51;46.60;42.50
2407;DHT22;37709;53.480;9.688;2023-08-21T10:17:19;47.50;41.40
2407;DHT22;37709;53.480;9.688;2023-08-21T10:19:53;47.70;41.40
2407;DHT22;37709;53.480;9.688;2023-08-21T10:22:45;49.00;40.90
2407;DHT22;37709;53.480;9.688;2023-08-21T10:25:23;48.70;38.50
2407;DHT22;37709;53.480;9.688;2023-08-21T10:27:59;48.20;38.20
2407;DHT22;37709;53.480;9.688;2023-08-21T10:30:28;48.40;38.90
2407;DHT22;37709;53.480;9.688;2023-08-21T10:32:58;48.40;38.50
2407;DHT22;37709;53.480;9.688;2023-08-21T10:35:30;48.40;37.80
2407;DHT22;37709;53.480;9.688;2023-08-21T10:38:06;48.50;37.10
2407;DHT22;37709;53.480;9.688;2023-08-21T10:40:35;48.70;38.40
2407;DHT22;37709;53.480;9.688;2023-08-21T10:43:04;48.10;35.70
2407;DHT22;37709;53.480;9.688;2023-08-21T10:45:54;48.00;36.10
2407;DHT22;37709;53.480;9.688;2023-08-21T10:48:23;48.20;36.70
2407;DHT22;37709;53.480;9.688;2023-08-21T10:50:51;49.30;36.20
2407;DHT22;37709;53.480;9.688;2023-08-21T10:53:20;50.30;35.30
2407;DHT22;37709;53.480;9.688;2023-08-21T10:55:54;50.50;34.40
2407;DHT22;37709;53.480;9.688;2023-08-21T10:58:21;50.80;34.40
2407;DHT22;37709;53.480;9.688;2023-08-21T11:01:01;51.10;34.90
2407;DHT22;37709;53.480;9.688;2023-08-21T11:03:28;50.30;33.10
2407;DHT22;37709;53.480;9.688;2023-08-21T11:06:09;49.90;33.60
2407;DHT22;37709;53.480;9.688;2023-08-21T11:08:37;48.90;33.30
2407;DHT22;37709;53.480;9.688;2023-08-21T11:11:05;48.70;32.90
2407;DHT22;37709;53.480;9.688;2023-08-21T11:13:33;49.80;31.80
2407;DHT22;37709;53.480;9.688;2023-08-21T11:16:03;50.90;32.10
2407;DHT22;37709;53.480;9.688;2023-08-21T11:18:37;51.40;31.30
2407;DHT22;37709;53.480;9.688;2023-08-21T11:21:06;51.60;32.50
2407;DHT22;37709;53.480;9.688;2023-08-21T11:23:35;52.40;31.60
2407;DHT22;37709;53.480;9.688;2023-08-21T11:26:04;52.30;30.30
2407;DHT22;37709;53.480;9.688;2023-08-21T11:28:48;52.50;30.00
2407;DHT22;37709;53.480;9.688;2023-08-21T11:31:16;52.80;30.70
2407;DHT22;37709;53.480;9.688;2023-08-21T11:33:51;51.90;29.70
2407;DHT22;37709;53.480;9.688;2023-08-21T11:36:19;50.80;29.60
2407;DHT22;37709;53.480;9.688;2023-08-21T11:39:01;51.10;29.60
2407;DHT22;37709;53.480;9.688;2023-08-21T11:41:30;51.50;29.80
2407;DHT22;37709;53.480;9.688;2023-08-21T11:44:04;52.20;29.60
2407;DHT22;37709;53.480;9.688;2023-08-21T11:46:32;51.90;29.60
2407;DHT22;37709;53.480;9.688;2023-08-21T11:49:01;51.60;30.00
2407;DHT22;37709;53.480;9.688;2023-08-21T11:51:29;50.90;29.60
2407;DHT22;37709;53.480;9.688;2023-08-21T11:54:04;49.10;31.50
2407;DHT22;37709;53.480;9.688;2023-08-21T11:56:32;50.30;29.80
2407;DHT22;37709;53.480;9.688;2023-08-21T11:59:04;51.40;29.50
2407;DHT22;37709;53.480;9.688;2023-08-21T12:01:35;51.50;28.50
2407;DHT22;37709;53.480;9.688;2023-08-21T12:04:14;51.70;29.00
2407;DHT22;37709;53.480;9.688;2023-08-21T12:06:46;52.60;29.00
2407;DHT22;37709;53.480;9.688;2023-08-21T12:09:14;53.10;29.00
2407;DHT22;37709;53.480;9.688;2023-08-21T12:11:42;53.60;27.40
2407;DHT22;37709;53.480;9.688;2023-08-21T12:14:09;52.20;28.20
2407;DHT22;37709;53.480;9.688;2023-08-21T12:16:37;50.60;28.50
2407;DHT22;37709;53.480;9.688;2023-08-21T12:19:05;50.60;29.20
2407;DHT22;37709;53.480;9.688;2023-08-21T12:21:36;50.90;28.00
2407;DHT22;37709;53.480;9.688;2023-08-21T12:24:05;50.30;28.30
2407;DHT22;37709;53.480;9.688;2023-08-21T12:26:33;49.20;28.90
2407;DHT22;37709;53.480;9.688;2023-08-21T12:29:16;49.40;28.20
2407;DHT22;37709;53.480;9.688;2023-08-21T12:31:43;49.80;29.00
2407;DHT22;37709;53.480;9.688;2023-08-21T12:34:10;51.20;29.40
2407;DHT22;37709;53.480;9.688;2023-08-21T12:36:38;51.80;29.90
2407;DHT22;37709;53.480;9.688;2023-08-21T12:39:06;52.70;28.70
2407;DHT22;37709;53.480;9.688;2023-08-21T12:41:33;53.20;28.70
2407;DHT22;37709;53.480;9.688;2023-08-21T12:44:01;53.80;27.60
2407;DHT22;37709;53.480;9.688;2023-08-21T12:46:36;54.40;27.70
2407;DHT22;37709;53.480;9.688;2023-08-21T12:49:05;54.60;27.90
2407;DHT22;37709;53.480;9.688;2023-08-21T12:51:32;54.80;28.10
2407;DHT22;37709;53.480;9.688;2023-08-21T12:54:00;55.10;26.50
2407;DHT22;37709;53.480;9.688;2023-08-21T12:56:27;54.00;27.60
2407;DHT22;37709;53.480;9.688;2023-08-21T12:58:55;53.70;27.80
2407;DHT22;37709;53.480;9.688;2023-08-21T13:01:25;53.30;27.40
2407;DHT22;37709;53.480;9.688;2023-08-21T13:03:53;53.40;28.40
2407;DHT22;37709;53.480;9.688;2023-08-21T13:06:21;53.30;28.70
2407;DHT22;37709;53.480;9.688;2023-08-21T13:08:48;52.70;28.10
2407;DHT22;37709;53.480;9.688;2023-08-21T13:11:15;52.60;28.70
2407;DHT22;37709;53.480;9.688;2023-08-21T13:13:42;53.40;27.70
2407;DHT22;37709;53.480;9.688;2023-08-21T13:16:10;54.00;27.80
2407;DHT22;37709;53.480;9.688;2023-08-21T13:18:37;54.00;27.50
2407;DHT22;37709;53.480;9.688;2023-08-21T13:21:05;53.40;27.60
2407;DHT22;37709;53.480;9.688;2023-08-21T13:23:32;52.90;27.40
2407;DHT22;37709;53.480;9.688;2023-08-21T13:26:01;53.60;27.20
2407;DHT22;37709;53.480;9.688;2023-08-21T13:28:29;53.50;26.60
2407;DHT22;37709;53.480;9.688;2023-08-21T13:30:58;52.40;27.40
2407;DHT22;37709;53.480;9.688;2023-08-21T13:33:26;47.70;28.50
2407;DHT22;37709;53.480;9.688;2023-08-21T13:35:53;44.80;30.60
2407;DHT22;37709;53.480;9.688;2023-08-21T13:38:21;46.00;31.50
2407;DHT22;37709;53.480;9.688;2023-08-21T13:40:48;45.50;32.50
2407;DHT22;37709;53.480;9.688;2023-08-21T13:43:16;45.80;30.80
2407;DHT22;37709;53.480;9.688;2023-08-21T13:45:43;45.40;32.40
2407;DHT22;37709;53.480;9.688;2023-08-21T13:48:12;47.20;30.70
2407;DHT22;37709;53.480;9.688;2023-08-21T13:50:39;48.60;29.50
2407;DHT22;37709;53.480;9.688;2023-08-21T13:53:07;48.60;28.30
2407;DHT22;37709;53.480;9.688;2023-08-21T13:55:35;48.40;28.70
2407;DHT22;37709;53.480;9.688;2023-08-21T13:58:02;49.00;28.40
2407;DHT22;37709;53.480;9.688;2023-08-21T14:00:29;48.70;28.80
2407;DHT22;37709;53.480;9.688;2023-08-21T14:02:57;45.50;31.10
2407;DHT22;37709;53.480;9.688;2023-08-21T14:05:24;44.60;32.90
2407;DHT22;37709;53.480;9.688;2023-08-21T14:07:53;43.70;33.00
2407;DHT22;37709;53.480;9.688;2023-08-21T14:10:20;41.50;35.40
2407;DHT22;37709;53.480;9.688;2023-08-21T14:12:47;41.20;35.90
2407;DHT22;37709;53.480;9.688;2023-08-21T14:15:15;43.30;33.90
2407;DHT22;37709;53.480;9.688;2023-08-21T14:17:42;43.60;33.20
2407;DHT22;37709;53.480;9.688;2023-08-21T14:20:11;42.90;34.70
2407;DHT22;37709;53.480;9.688;2023-08-21T14:22:39;44.30;32.90
2407;DHT22;37709;53.480;9.688;2023-08-21T14:25:06;44.00;33.70
2407;DHT22;37709;53.480;9.688;2023-08-21T14:27:34;44.90;32.60
2407;DHT22;37709;53.480;9.688;2023-08-21T14:30:04;45.40;31.10
2407;DHT22;37709;53.480;9.688;2023-08-21T14:32:33;45.50;32.30
2407;DHT22;37709;53.480;9.688;2023-08-21T14:35:04;45.30;31.40
2407;DHT22;37709;53.480;9.688;2023-08-21T14:37:37;44.90;32.00
2407;DHT22;37709;53.480;9.688;2023-08-21T14:40:06;44.50;32.90
2407;DHT22;37709;53.480;9.688;2023-08-21T14:42:35;44.60;33.40
2407;DHT22;37709;53.480;9.688;2023-08-21T14:45:04;44.30;32.80
2407;DHT22;37709;53.480;9.688;2023-08-21T14:47:31;43.50;32.60
2407;DHT22;37709;53.480;9.688;2023-08-21T14:50:00;42.80;33.10
2407;DHT22;37709;53.480;9.688;2023-08-21T14:52:27;43.20;34.70
2407;DHT22;37709;53.480;9.688;2023-08-21T14:54:54;43.50;34.70
2407;DHT22;37709;53.480;9.688;2023-08-21T14:57:21;43.80;32.60
2407;DHT22;37709;53.480;9.688;2023-08-21T14:59:49;43.90;33.00
2407;DHT22;37709;53.480;9.688;2023-08-21T15:02:16;43.40;33.10
2407;DHT22;37709;53.480;9.688;2023-08-21T15:04:44;43.30;33.30
2407;DHT22;37709;53.480;9.688;2023-08-21T15:07:11;43.00;33.80
2407;DHT22;37709;53.480;9.688;2023-08-21T15:09:38;42.90;34.30
2407;DHT22;37709;53.480;9.688;2023-08-21T15:12:06;43.00;33.40
2407;DHT22;37709;53.480;9.688;2023-08-21T15:14:33;42.80;34.20
2407;DHT22;37709;53.480;9.688;2023-08-21T15:17:02;42.30;34.20
2407;DHT22;37709;53.480;9.688;2023-08-21T15:19:47;41.90;34.70
2407;DHT22;37709;53.480;9.688;2023-08-21T15:22:17;41.30;35.80
2407;DHT22;37709;53.480;9.688;2023-08-21T15:24:44;40.90;35.60
2407;DHT22;37709;53.480;9.688;2023-08-21T15:27:11;40.70;36.00
2407;DHT22;37709;53.480;9.688;2023-08-21T15:29:41;40.70;36.40
2407;DHT22;37709;53.480;9.688;2023-08-21T15:32:08;40.20;37.40
2407;DHT22;37709;53.480;9.688;2023-08-21T15:34:36;39.90;37.90
2407;DHT22;37709;53.480;9.688;2023-08-21T15:37:04;39.60;37.20
2407;DHT22;37709;53.480;9.688;2023-08-21T15:39:32;38.70;39.50
2407;DHT22;37709;53.480;9.688;2023-08-21T15:41:59;38.70;39.30
2407;DHT22;37709;53.480;9.688;2023-08-21T15:44:27;38.50;39.10
2407;DHT22;37709;53.480;9.688;2023-08-21T15:46:54;38.40;39.60
2407;DHT22;37709;53.480;9.688;2023-08-21T15:49:41;38.10;39.10
2407;DHT22;37709;53.480;9.688;2023-08-21T15:52:08;37.30;40.20
2407;DHT22;37709;53.480;9.688;2023-08-21T15:54:38;36.90;40.80
2407;DHT22;37709;53.480;9.688;2023-08-21T15:57:07;36.60;41.10
2407;DHT22;37709;53.480;9.688;2023-08-21T15:59:35;36.30;41.60
2407;DHT22;37709;53.480;9.688;2023-08-21T16:02:02;35.90;42.80
2407;DHT22;37709;53.480;9.688;2023-08-21T16:04:30;35.60;43.90
2407;DHT22;37709;53.480;9.688;2023-08-21T16:06:57;35.30;43.90
2407;DHT22;37709;53.480;9.688;2023-08-21T16:09:25;34.90;44.60
2407;DHT22;37709;53.480;9.688;2023-08-21T16:11:52;34.50;44.90
2407;DHT22;37709;53.480;9.688;2023-08-21T16:14:20;33.70;45.10
2407;DHT22;37709;53.480;9.688;2023-08-21T16:16:48;33.20;45.80